Time;durP1;ratioP1;P1;durP2;ratioP2;P2;SDS_P1;SDS_P2;PMS_P1;PMS_P2;Temp;Humidity;BMP_temperature;BMP_pressure;BME280_temperature;BME280_humidity;BME280_pressure;Samples;Min_cycle;Max_cycle;Signal;HPM_P1;HPM_P2
2021/12/13 00:02:12;;;;;;;12.30;9.57;;;16.10;54.50;15.10;101988.00;;;;5021255;28;20049;-68
2021/12/13 00:05:32;;;;;;;14.60;9.00;;;16.10;54.50;15.10;101990.00;;;;5022808;28;20075;-68
2021/12/13 00:08:24;;;;;;;11.60;9.13;;;16.10;54.50;15.10;101989.00;;;;5017834;28;20045;-68
2021/12/13 00:11:44;;;;;;;13.95;10.23;;;16.10;54.40;15.10;101984.00;;;;5000412;28;20462;-68
2021/12/13 00:14:35;;;;;;;15.23;10.23;;;16.10;54.60;15.10;101985.00;;;;5019650;28;20077;-68
2021/12/13 00:17:35;;;;;;;14.93;9.48;;;16.10;54.50;15.10;101994.00;;;;5005280;28;20472;-68
2021/12/13 00:20:39;;;;;;;14.50;10.25;;;16.10;54.60;15.10;101991.00;;;;4991054;28;20116;-68
2021/12/13 00:23:55;;;;;;;14.60;9.30;;;16.10;54.60;15.10;101985.00;;;;5019346;28;20049;-68
2021/12/13 00:26:46;;;;;;;14.00;10.18;;;16.10;54.70;15.20;101992.00;;;;5011943;28;20041;-68
2021/12/13 00:29:42;;;;;;;14.52;10.13;;;16.10;54.60;15.10;101984.00;;;;5017803;28;20041;-68
2021/12/13 00:33:00;;;;;;;14.40;10.65;;;16.10;54.60;15.20;101981.00;;;;5032947;28;20124;-68
2021/12/13 00:35:52;;;;;;;13.27;10.18;;;16.10;54.60;15.20;101980.00;;;;5016788;28;20064;-68
2021/12/13 00:38:46;;;;;;;17.30;9.88;;;16.10;54.60;15.20;101987.00;;;;5007732;28;20037;-68
2021/12/13 00:41:32;;;;;;;17.90;11.02;;;16.10;54.70;15.20;101978.00;;;;5013641;28;20281;-68
2021/12/13 00:44:58;;;;;;;13.85;10.02;;;16.10;54.60;15.20;101983.00;;;;5037080;28;20036;-68
2021/12/13 00:47:45;;;;;;;13.23;9.65;;;16.20;54.80;15.20;101980.00;;;;5011803;28;20037;-68
2021/12/13 00:50:46;;;;;;;15.10;10.45;;;16.10;54.60;15.20;101976.00;;;;5024239;28;20044;-68
2021/12/13 00:53:42;;;;;;;12.65;9.63;;;16.10;54.80;15.20;101988.00;;;;5033084;28;20038;-68
2021/12/13 00:56:59;;;;;;;14.45;10.57;;;16.10;54.80;15.20;101987.00;;;;5001740;28;20041;-68
2021/12/13 00:59:58;;;;;;;15.77;10.80;;;16.20;54.80;15.20;101987.00;;;;5020316;28;20045;-68
2021/12/13 01:02:49;;;;;;;15.43;10.20;;;16.10;54.70;15.20;101998.00;;;;5023482;28;20460;-68
2021/12/13 01:06:03;;;;;;;16.67;10.45;;;16.20;54.70;15.20;101998.00;;;;5014663;28;20057;-68
2021/12/13 01:09:46;;;;;;;13.85;10.77;;;16.20;54.80;15.20;101997.00;;;;5018713;28;20048;-68
2021/12/13 01:12:32;;;;;;;14.15;10.75;;;16.20;54.80;15.20;102003.00;;;;5015598;28;20496;-68
2021/12/13 01:15:47;;;;;;;20.67;11.80;;;16.20;54.80;15.20;102001.00;;;;5039769;28;20552;-68
2021/12/13 01:19:13;;;;;;;19.33;11.30;;;16.10;54.80;15.20;102011.00;;;;5035905;28;20411;-68
2021/12/13 01:25:47;;;;;;;15.18;11.20;;;16.20;54.90;15.20;102017.00;;;;5024366;28;20071;-68
2021/12/13 01:28:37;;;;;;;15.90;10.85;;;16.20;54.80;15.20;102015.00;;;;5019643;28;20046;-68
2021/12/13 01:31:51;;;;;;;15.73;10.88;;;16.20;54.90;15.20;102020.00;;;;5020522;28;20128;-68
2021/12/13 01:34:58;;;;;;;16.20;11.15;;;16.10;54.90;15.20;102026.00;;;;5013507;28;20045;-68
2021/12/13 01:37:50;;;;;;;19.90;12.30;;;16.20;55.00;15.20;102028.00;;;;5036209;28;20050;-68
2021/12/13 01:40:38;;;;;;;18.30;11.18;;;16.20;54.90;15.20;102030.00;;;;5023129;28;20046;-68
2021/12/13 01:43:28;;;;;;;19.60;12.52;;;16.20;55.00;15.20;102026.00;;;;5024612;28;20458;-68
2021/12/13 01:46:15;;;;;;;17.38;12.00;;;16.20;55.00;15.20;102034.00;;;;5019293;28;20044;-68
2021/12/13 01:49:02;;;;;;;17.00;12.00;;;16.20;55.00;15.20;102039.00;;;;5034843;28;20049;-68
2021/12/13 01:51:48;;;;;;;18.92;11.80;;;16.20;55.00;15.20;102030.00;;;;5019821;28;20077;-68
2021/12/13 01:54:34;;;;;;;16.90;11.65;;;16.20;55.00;15.20;102026.00;;;;5025463;28;20146;-68
2021/12/13 01:57:25;;;;;;;17.38;11.93;;;16.20;55.00;15.20;102035.00;;;;5023500;28;20384;-68
2021/12/13 02:01:08;;;;;;;15.70;11.20;;;16.20;55.00;15.20;102038.00;;;;5024203;28;20041;-68
2021/12/13 02:04:02;;;;;;;14.93;11.45;;;16.20;55.10;15.20;102027.00;;;;5010619;28;20407;-68
2021/12/13 02:06:51;;;;;;;19.38;12.27;;;16.20;55.00;15.20;102034.00;;;;5017028;28;20045;-68
2021/12/13 02:09:43;;;;;;;17.38;11.30;;;16.20;55.00;15.20;102042.00;;;;5019361;28;20048;-68
2021/12/13 02:12:30;;;;;;;19.55;11.20;;;16.20;55.10;15.20;102041.00;;;;5005874;28;20037;-68
2021/12/13 02:18:24;;;;;;;15.50;11.02;;;16.20;55.00;15.20;102043.00;;;;5023738;28;20391;-69
2021/12/13 02:21:29;;;;;;;14.85;10.95;;;16.20;55.10;15.20;102048.00;;;;5020087;28;20037;-68
2021/12/13 02:24:15;;;;;;;17.85;11.55;;;16.20;55.10;15.20;102049.00;;;;5014421;28;20546;-68
2021/12/13 02:27:01;;;;;;;15.32;9.80;;;16.20;55.10;15.20;102053.00;;;;5020375;28;20033;-68
2021/12/13 02:29:48;;;;;;;14.55;11.00;;;16.20;55.10;15.20;102037.00;;;;5009819;28;20045;-68
2021/12/13 02:32:35;;;;;;;16.85;11.38;;;16.20;55.10;15.20;102036.00;;;;5039489;28;20045;-68
2021/12/13 02:35:24;;;;;;;15.02;10.20;;;16.20;55.10;15.20;102040.00;;;;5025189;28;20410;-68
2021/12/13 02:38:11;;;;;;;13.55;9.95;;;16.20;55.20;15.20;102047.00;;;;5023681;28;20048;-68
2021/12/13 02:40:58;;;;;;;14.18;10.05;;;16.20;55.20;15.20;102044.00;;;;5021488;28;20403;-68
2021/12/13 02:43:48;;;;;;;15.52;10.23;;;16.20;55.20;15.20;102043.00;;;;5034770;28;20045;-68
2021/12/13 02:46:37;;;;;;;17.10;9.80;;;16.20;55.20;15.20;102040.00;;;;5026905;28;20038;-68
2021/12/13 02:49:23;;;;;;;14.00;9.32;;;16.20;55.20;15.20;102051.00;;;;4998801;28;20438;-68
2021/12/13 02:52:13;;;;;;;13.50;9.02;;;16.20;55.20;15.20;102042.00;;;;5018271;28;20414;-68
2021/12/13 02:55:06;;;;;;;13.68;9.60;;;16.20;55.30;15.20;102038.00;;;;5010955;28;20056;-68
2021/12/13 02:57:53;;;;;;;13.27;8.75;;;16.20;55.30;15.20;102041.00;;;;5018230;28;20038;-68
2021/12/13 03:00:57;;;;;;;12.30;9.07;;;16.20;55.30;15.20;102037.00;;;;5024394;28;20053;-68
2021/12/13 03:03:47;;;;;;;13.27;8.93;;;16.20;55.40;15.20;102031.00;;;;5020540;28;20514;-68
2021/12/13 03:06:46;;;;;;;12.10;9.20;;;16.20;55.30;15.30;102044.00;;;;5002398;28;20384;-68
2021/12/13 03:09:34;;;;;;;11.50;8.68;;;16.20;55.40;15.30;102048.00;;;;5024917;28;20050;-68
2021/12/13 03:12:22;;;;;;;11.60;8.52;;;16.20;55.30;15.30;102052.00;;;;5011548;28;20045;-68
2021/12/13 03:15:14;;;;;;;;;;;16.20;55.40;15.20;102054.00;;;;5009140;28;20056;-68
2021/12/13 03:18:19;;;;;;;10.88;8.10;;;16.20;55.00;15.20;102059.00;;;;5014476;28;20382;-68
2021/12/13 03:21:47;;;;;;;9.15;7.40;;;16.20;55.40;15.20;102059.00;;;;5016226;28;20048;-68
2021/12/13 03:25:04;;;;;;;10.52;7.30;;;16.20;55.40;15.20;102064.00;;;;5020898;28;20049;-68
2021/12/13 03:28:33;;;;;;;9.45;6.97;;;16.20;55.50;15.20;102061.00;;;;5015817;28;20053;-68
2021/12/13 03:31:25;;;;;;;11.70;7.87;;;16.20;55.60;15.20;102069.00;;;;5016943;28;20452;-68
2021/12/13 03:34:23;;;;;;;9.23;6.50;;;16.20;55.50;15.20;102066.00;;;;5016805;28;20061;-68
2021/12/13 03:37:15;;;;;;;;;;;16.20;55.60;15.20;102076.00;;;;5017499;28;20030;-68
2021/12/13 03:40:12;;;;;;;8.43;5.85;;;16.20;55.10;15.20;102070.00;;;;5040401;28;19917;-68
2021/12/13 03:43:04;;;;;;;7.10;6.07;;;16.20;55.60;15.20;102063.00;;;;5009979;28;20129;-68
2021/12/13 03:46:02;;;;;;;7.75;6.20;;;16.20;55.60;15.20;102071.00;;;;5021072;28;20392;-68
2021/12/13 03:48:49;;;;;;;;;;;16.20;55.80;15.20;102081.00;;;;5023799;28;20033;-68
2021/12/13 03:51:39;;;;;;;7.68;5.85;;;16.20;55.10;15.20;102080.00;;;;5034814;28;19960;-68
2021/12/13 03:54:27;;;;;;;6.63;5.63;;;16.20;55.60;15.20;102088.00;;;;5019946;28;20046;-68
2021/12/13 03:57:14;;;;;;;6.50;5.38;;;16.20;55.70;15.20;102090.00;;;;5012204;28;20089;-68
2021/12/13 04:00:01;;;;;;;7.07;5.55;;;16.20;55.80;15.20;102088.00;;;;5006849;28;20414;-68
2021/12/13 04:02:47;;;;;;;6.25;5.18;;;16.20;55.80;15.20;102080.00;;;;5008772;28;20041;-68
2021/12/13 04:05:33;;;;;;;7.65;5.30;;;16.20;55.90;15.20;102083.00;;;;5015657;28;20506;-68
2021/12/13 04:08:20;;;;;;;5.75;4.88;;;16.20;55.90;15.20;102082.00;;;;5015521;28;20041;-68
2021/12/13 04:11:10;;;;;;;6.70;5.00;;;16.20;55.90;15.20;102086.00;;;;5035289;28;20041;-68
2021/12/13 04:14:08;;;;;;;6.00;5.28;;;16.20;56.00;15.20;102082.00;;;;5006421;28;20049;-69
2021/12/13 04:17:19;;;;;;;6.07;4.97;;;16.20;56.00;15.20;102082.00;;;;5010998;28;20036;-68
2021/12/13 04:20:19;;;;;;;5.43;4.90;;;16.20;55.90;15.30;102092.00;;;;5019370;28;20522;-68
2021/12/13 04:23:19;;;;;;;6.75;5.30;;;16.20;55.90;15.30;102092.00;;;;5011203;28;20042;-69
2021/12/13 04:26:07;;;;;;;6.60;5.00;;;16.20;56.00;15.30;102101.00;;;;5019056;28;20122;-68
2021/12/13 04:28:56;;;;;;;5.55;4.93;;;16.20;56.00;15.30;102099.00;;;;5018838;28;20495;-68
2021/12/13 04:31:43;;;;;;;7.22;5.28;;;16.20;56.10;15.30;102089.00;;;;5009291;28;20092;-68
2021/12/13 04:34:29;;;;;;;6.72;5.38;;;16.30;56.10;15.30;102098.00;;;;5021807;28;20045;-68
2021/12/13 04:37:20;;;;;;;6.47;5.38;;;16.30;56.10;15.30;102098.00;;;;5016165;28;20033;-68
2021/12/13 04:40:13;;;;;;;5.55;4.93;;;16.30;56.10;15.30;102098.00;;;;5016263;28;20226;-68
2021/12/13 04:43:13;;;;;;;6.15;5.13;;;16.30;56.70;15.30;102099.00;;;;5016295;28;20037;-68
2021/12/13 04:46:00;;;;;;;7.18;4.85;;;16.30;56.00;15.30;102109.00;;;;5022426;28;20049;-68
2021/12/13 04:48:46;;;;;;;6.50;5.28;;;16.30;55.90;15.30;102106.00;;;;5014739;28;20069;-68
2021/12/13 04:51:52;;;;;;;6.82;4.82;;;16.30;56.00;15.30;102109.00;;;;5022083;28;20099;-68
2021/12/13 04:54:41;;;;;;;7.05;5.03;;;16.40;55.90;15.30;102112.00;;;;5017393;28;20076;-68
2021/12/13 04:57:27;;;;;;;7.78;5.82;;;16.40;55.90;15.40;102110.00;;;;5016995;28;20041;-68
2021/12/13 05:00:17;;;;;;;6.45;4.97;;;16.40;55.80;15.40;102119.00;;;;5020496;28;20416;-68
2021/12/13 05:03:03;;;;;;;6.13;5.13;;;16.40;55.70;15.40;102110.00;;;;5017353;28;20037;-68
2021/12/13 05:05:50;;;;;;;6.15;5.32;;;16.40;55.70;15.40;102106.00;;;;5019303;28;20050;-68
2021/12/13 05:08:38;;;;;;;6.65;5.45;;;16.40;55.70;15.40;102114.00;;;;5021184;28;20121;-68
2021/12/13 05:11:37;;;;;;;7.70;5.50;;;16.40;55.70;15.40;102120.00;;;;5016874;28;20046;-68
2021/12/13 05:14:36;;;;;;;7.22;5.53;;;16.40;55.70;15.40;102112.00;;;;5021473;28;20494;-68
2021/12/13 05:17:25;;;;;;;7.00;5.28;;;16.40;55.70;15.40;102113.00;;;;5009878;28;20157;-68
2021/12/13 05:20:20;;;;;;;6.25;5.18;;;16.40;55.60;15.40;102117.00;;;;5000505;28;20037;-68
2021/12/13 05:23:09;;;;;;;7.72;5.78;;;16.40;55.50;15.40;102110.00;;;;5012262;28;20038;-68
2021/12/13 05:26:06;;;;;;;6.10;4.97;;;16.40;55.50;15.40;102113.00;;;;4998312;28;20049;-68
2021/12/13 05:28:53;;;;;;;8.30;6.10;;;16.40;55.60;15.40;102113.00;;;;5021191;28;20069;-68
2021/12/13 05:31:39;;;;;;;6.38;5.07;;;16.50;55.50;15.40;102119.00;;;;5013724;28;20574;-68
2021/12/13 05:34:44;;;;;;;7.75;5.53;;;16.50;55.50;15.50;102116.00;;;;5013013;28;20053;-68
2021/12/13 05:37:52;;;;;;;6.65;5.55;;;16.50;55.60;15.50;102114.00;;;;5019255;28;20130;-68
2021/12/13 05:40:44;;;;;;;8.07;5.40;;;16.50;55.60;15.50;102114.00;;;;5011006;28;20057;-68
2021/12/13 05:43:47;;;;;;;6.75;5.45;;;16.50;55.50;15.50;102112.00;;;;5025325;28;20654;-68
2021/12/13 05:47:02;;;;;;;7.15;5.90;;;16.50;55.40;15.50;102116.00;;;;5026132;28;20546;-68
2021/12/13 05:49:49;;;;;;;8.20;5.72;;;16.50;55.40;15.50;102115.00;;;;5033835;28;20044;-68
2021/12/13 05:52:37;;;;;;;8.02;6.20;;;16.50;55.30;15.50;102126.00;;;;5004275;28;20038;-68
2021/12/13 05:55:24;;;;;;;7.93;6.15;;;16.50;55.30;15.50;102131.00;;;;5017497;28;20041;-68
2021/12/13 05:58:13;;;;;;;8.63;6.63;;;16.50;55.30;15.50;102137.00;;;;5015181;28;20038;-68
2021/12/13 06:01:00;;;;;;;8.45;6.50;;;16.50;55.40;15.50;102138.00;;;;5009450;28;20042;-68
2021/12/13 06:04:06;;;;;;;8.47;6.80;;;16.50;55.30;15.50;102130.00;;;;5022818;28;20041;-68
2021/12/13 06:06:54;;;;;;;8.00;6.35;;;16.50;55.40;15.50;102130.00;;;;5018829;28;20034;-68
2021/12/13 06:09:41;;;;;;;8.27;6.63;;;16.50;55.30;15.50;102136.00;;;;5025393;28;20045;-68
2021/12/13 06:12:51;;;;;;;9.48;6.95;;;16.50;55.30;15.50;102133.00;;;;5013276;28;20119;-68
2021/12/13 06:15:42;;;;;;;7.28;6.15;;;16.50;55.30;15.50;102136.00;;;;5015545;28;20046;-68
2021/12/13 06:18:39;;;;;;;8.77;6.93;;;16.50;55.30;15.50;102138.00;;;;5016028;28;20488;-68
2021/12/13 06:22:00;;;;;;;10.75;7.15;;;16.50;55.30;15.50;102140.00;;;;5006270;28;20048;-68
2021/12/13 06:24:56;;;;;;;10.00;7.80;;;16.50;55.30;15.50;102141.00;;;;5020116;28;20045;-68
2021/12/13 06:27:49;;;;;;;9.90;7.57;;;16.50;55.30;15.40;102144.00;;;;5023216;28;20077;-68
2021/12/13 06:30:38;;;;;;;12.23;8.50;;;16.50;55.30;15.40;102149.00;;;;5010259;28;20056;-68
2021/12/13 06:33:25;;;;;;;10.90;8.48;;;16.40;55.30;15.40;102144.00;;;;5018067;28;20038;-68
2021/12/13 06:36:11;;;;;;;10.82;8.23;;;16.50;55.40;15.40;102145.00;;;;5017336;28;20041;-68
2021/12/13 06:39:14;;;;;;;14.50;9.10;;;16.50;55.40;15.40;102147.00;;;;5005589;28;20037;-68
2021/12/13 06:42:04;;;;;;;11.20;8.55;;;16.40;55.40;15.40;102156.00;;;;5019250;28;20037;-68
2021/12/13 06:44:50;;;;;;;12.05;9.73;;;16.50;55.40;15.40;102152.00;;;;5017385;28;20318;-68
2021/12/13 06:47:36;;;;;;;12.23;9.70;;;16.40;55.40;15.40;102150.00;;;;5013465;28;20045;-68
2021/12/13 06:50:29;;;;;;;12.82;9.00;;;16.40;55.40;15.40;102161.00;;;;4989888;28;20095;-68
2021/12/13 06:53:27;;;;;;;12.77;9.18;;;16.40;55.40;15.40;102155.00;;;;5020136;28;20033;-68
2021/12/13 06:56:26;;;;;;;13.00;9.50;;;16.40;55.40;15.50;102169.00;;;;5015789;28;20042;-68
2021/12/13 06:59:16;;;;;;;13.60;9.52;;;16.40;55.40;15.50;102168.00;;;;5018190;28;20395;-68
2021/12/13 07:02:24;;;;;;;11.63;9.38;;;16.40;55.40;15.50;102156.00;;;;5022671;28;20353;-68
2021/12/13 07:05:14;;;;;;;10.95;8.95;;;16.40;55.40;15.50;102158.00;;;;5013255;28;20065;-68
2021/12/13 07:08:10;;;;;;;10.98;8.75;;;16.50;56.10;15.50;102162.00;;;;5016012;28;20038;-68
2021/12/13 07:11:17;;;;;;;11.77;8.77;;;16.50;55.50;15.50;102170.00;;;;5003084;28;20047;-68
2021/12/13 07:14:06;;;;;;;11.82;9.40;;;16.50;55.40;15.50;102164.00;;;;5020287;28;20041;-68
2021/12/13 07:16:52;;;;;;;11.98;9.10;;;16.50;55.30;15.50;102169.00;;;;5017491;28;20049;-68
2021/12/13 07:19:40;;;;;;;11.55;8.57;;;16.50;55.30;15.50;102182.00;;;;5021042;28;20030;-68
2021/12/13 07:22:29;;;;;;;10.68;8.40;;;16.50;55.30;15.40;102183.00;;;;5015518;28;20080;-68
2021/12/13 07:25:16;;;;;;;10.70;8.73;;;16.50;55.40;15.50;102181.00;;;;5014625;28;20050;-68
2021/12/13 07:28:03;;;;;;;11.43;9.25;;;16.50;55.30;15.50;102193.00;;;;4988196;28;20048;-68
2021/12/13 07:30:49;;;;;;;10.52;8.85;;;16.50;55.30;15.50;102193.00;;;;5017408;28;20045;-68
2021/12/13 07:33:42;;;;;;;13.75;9.57;;;16.40;55.20;15.50;102187.00;;;;5019781;28;20049;-68
2021/12/13 07:36:28;;;;;;;11.75;9.07;;;16.40;55.30;15.50;102192.00;;;;5017146;28;20564;-68
2021/12/13 07:39:15;;;;;;;12.80;8.88;;;16.50;55.30;15.50;102190.00;;;;5015851;28;20044;-68
2021/12/13 07:42:06;;;;;;;11.25;8.05;;;16.50;55.30;15.50;102190.00;;;;5002367;28;20034;-68
2021/12/13 07:44:52;;;;;;;11.02;8.90;;;16.50;55.30;15.50;102204.00;;;;5013292;28;20034;-68
2021/12/13 07:47:38;;;;;;;11.25;9.20;;;16.40;55.20;15.50;102196.00;;;;5021737;28;20406;-68
2021/12/13 07:50:25;;;;;;;11.70;8.98;;;16.40;55.20;15.50;102204.00;;;;5003694;28;20038;-68
2021/12/13 07:53:14;;;;;;;10.98;8.45;;;16.40;55.20;15.50;102203.00;;;;5016723;28;20045;-68
2021/12/13 07:56:00;;;;;;;10.95;8.52;;;16.50;55.30;15.50;102209.00;;;;5006066;28;20103;-68
2021/12/13 07:58:49;;;;;;;11.52;8.52;;;16.40;55.90;15.50;102210.00;;;;5022519;28;20398;-68
2021/12/13 08:02:14;;;;;;;10.85;8.82;;;16.40;55.30;15.50;102209.00;;;;5016950;28;20091;-68
2021/12/13 08:05:13;;;;;;;12.98;9.07;;;16.40;55.30;15.40;102204.00;;;;5011791;28;20037;-68
2021/12/13 08:08:01;;;;;;;12.35;9.05;;;16.40;55.30;15.40;102204.00;;;;5034212;28;20041;-68
2021/12/13 08:10:48;;;;;;;11.80;8.52;;;16.50;55.30;15.40;102213.00;;;;4996891;28;20049;-68
2021/12/13 08:13:35;;;;;;;12.00;8.95;;;16.40;55.20;15.40;102226.00;;;;5011188;28;20423;-68
2021/12/13 08:16:33;;;;;;;11.70;8.20;;;16.40;55.30;15.50;102226.00;;;;5019005;28;20480;-68
2021/12/13 08:19:25;;;;;;;13.35;8.05;;;16.40;55.30;15.50;102229.00;;;;5009553;28;20068;-68
2021/12/13 08:22:14;;;;;;;10.60;7.97;;;16.40;55.20;15.50;102231.00;;;;5015992;28;20595;-68
2021/12/13 08:25:20;;;;;;;11.93;8.45;;;16.40;55.20;15.40;102219.00;;;;5020882;28;20036;-68
2021/12/13 08:28:17;;;;;;;9.25;7.80;;;16.50;55.30;15.40;102229.00;;;;5013714;28;20045;-68
2021/12/13 08:31:06;;;;;;;12.45;9.20;;;16.40;55.20;15.40;102233.00;;;;5008807;28;20091;-68
2021/12/13 08:34:03;;;;;;;10.05;7.82;;;16.50;55.20;15.50;102223.00;;;;5010144;28;20124;-68
2021/12/13 08:36:50;;;;;;;12.98;8.73;;;16.40;55.30;15.40;102229.00;;;;5017846;28;20783;-69
2021/12/13 08:39:37;;;;;;;12.52;7.75;;;16.50;56.00;15.40;102235.00;;;;5020071;28;20164;-68
2021/12/13 08:42:26;;;;;;;10.82;8.25;;;16.40;55.20;15.40;102229.00;;;;5019649;28;20033;-68
2021/12/13 08:45:38;;;;;;;10.63;7.68;;;16.40;55.20;15.40;102236.00;;;;5037290;28;20034;-68
2021/12/13 08:48:24;;;;;;;12.27;8.00;;;16.40;55.20;15.40;102240.00;;;;5035520;28;20053;-68
2021/12/13 08:51:14;;;;;;;9.32;7.55;;;16.40;55.20;15.40;102240.00;;;;4994851;28;20048;-68
2021/12/13 08:54:08;;;;;;;10.57;7.75;;;16.40;55.20;15.40;102236.00;;;;5021680;28;20041;-68
2021/12/13 08:56:54;;;;;;;10.43;8.18;;;16.40;55.20;15.40;102243.00;;;;5014334;28;20218;-68
2021/12/13 08:59:51;;;;;;;10.68;7.57;;;16.40;55.20;15.50;102244.00;;;;5021067;28;20438;-68
2021/12/13 09:02:44;;;;;;;9.98;7.40;;;16.40;55.20;15.40;102237.00;;;;5020182;28;20189;-68
2021/12/13 09:05:36;;;;;;;9.77;7.03;;;16.40;55.20;15.40;102250.00;;;;5004994;28;20033;-68
2021/12/13 09:08:54;;;;;;;10.15;7.28;;;16.40;55.20;15.50;102252.00;;;;5011477;28;20045;-68
2021/12/13 09:12:00;;;;;;;8.98;7.35;;;16.40;55.20;15.40;102251.00;;;;5005604;28;20091;-68
2021/12/13 09:14:51;;;;;;;10.18;7.20;;;16.40;55.20;15.40;102248.00;;;;5006106;28;20054;-68
2021/12/13 09:17:41;;;;;;;8.70;7.10;;;16.40;55.20;15.40;102254.00;;;;5023059;28;20132;-68
2021/12/13 09:20:30;;;;;;;9.02;6.93;;;16.40;55.20;15.40;102256.00;;;;5024786;28;20049;-68
2021/12/13 09:23:30;;;;;;;10.48;7.30;;;16.40;55.20;15.50;102265.00;;;;5020637;28;20037;-68
2021/12/13 09:26:21;;;;;;;12.80;7.35;;;16.40;55.20;15.50;102274.00;;;;5020526;28;20049;-68
2021/12/13 09:29:08;;;;;;;8.57;6.65;;;16.40;55.20;15.50;102273.00;;;;5039536;28;20303;-68
2021/12/13 09:31:54;;;;;;;9.27;7.25;;;16.40;55.20;15.50;102272.00;;;;5020284;28;20052;-68
2021/12/13 09:34:40;;;;;;;8.48;6.88;;;16.40;55.20;15.50;102268.00;;;;5017667;28;20120;-68
2021/12/13 09:37:33;;;;;;;10.50;7.07;;;16.40;55.20;15.50;102272.00;;;;5024769;28;20037;-68
2021/12/13 09:40:30;;;;;;;9.00;7.15;;;16.40;55.20;15.50;102284.00;;;;5013094;28;20045;-68
2021/12/13 09:43:19;;;;;;;8.27;6.43;;;16.40;55.20;15.50;102281.00;;;;5021711;28;20041;-68
2021/12/13 09:46:28;;;;;;;10.05;7.05;;;16.40;55.20;15.50;102293.00;;;;5024466;28;20038;-68
2021/12/13 09:49:33;;;;;;;8.50;6.35;;;16.40;55.20;15.40;102290.00;;;;5034384;28;20116;-68
2021/12/13 09:52:28;;;;;;;11.07;7.03;;;16.40;55.10;15.50;102285.00;;;;5022127;28;20046;-68
2021/12/13 09:55:32;;;;;;;9.25;6.50;;;16.40;55.10;15.50;102287.00;;;;5015753;28;20042;-68
2021/12/13 09:58:25;;;;;;;7.75;5.95;;;16.40;55.10;15.50;102289.00;;;;5041457;28;20068;-68
2021/12/13 10:01:28;;;;;;;10.80;6.18;;;16.40;55.10;15.50;102285.00;;;;5026068;28;20034;-68
2021/12/13 10:04:34;;;;;;;8.43;6.18;;;16.40;55.10;15.50;102285.00;;;;5016914;28;20038;-68
2021/12/13 10:07:28;;;;;;;8.82;5.90;;;16.40;55.20;15.50;102288.00;;;;5014577;28;20045;-68
2021/12/13 10:10:25;;;;;;;8.88;5.97;;;16.40;55.10;15.40;102272.00;;;;5012532;28;20087;-68
2021/12/13 10:13:36;;;;;;;9.18;6.30;;;16.40;55.20;15.50;102263.00;;;;5019445;28;20255;-68
2021/12/13 10:16:28;;;;;;;8.82;6.53;;;16.40;55.10;15.50;102271.00;;;;5020179;28;20048;-68
2021/12/13 10:19:40;;;;;;;7.47;5.85;;;16.40;55.10;15.50;102279.00;;;;5019626;28;20041;-68
2021/12/13 10:22:30;;;;;;;9.25;6.05;;;16.40;55.10;15.40;102279.00;;;;5017887;28;20042;-68
2021/12/13 10:25:33;;;;;;;6.43;5.35;;;16.40;55.10;15.50;102280.00;;;;5016745;28;20042;-68
2021/12/13 10:28:24;;;;;;;7.07;5.25;;;16.40;55.10;15.50;102281.00;;;;5010627;28;20216;-68
2021/12/13 10:31:20;;;;;;;7.50;5.57;;;16.40;55.10;15.40;102282.00;;;;5036063;28;20495;-68
2021/12/13 10:34:10;;;;;;;8.30;5.35;;;16.40;55.10;15.40;102285.00;;;;5010984;28;20546;-68
2021/12/13 10:37:15;;;;;;;7.45;5.30;;;16.40;55.10;15.40;102272.00;;;;5025735;28;20049;-68
2021/12/13 10:40:10;;;;;;;8.88;6.18;;;16.40;55.10;15.40;102269.00;;;;5025514;28;20041;-68
2021/12/13 10:43:13;;;;;;;7.18;4.90;;;16.40;55.10;15.50;102279.00;;;;5020117;28;20048;-68
2021/12/13 10:46:07;;;;;;;9.07;5.72;;;16.40;55.10;15.40;102272.00;;;;5020903;28;20046;-68
2021/12/13 10:49:04;;;;;;;8.93;6.40;;;16.40;55.10;15.40;102287.00;;;;5008135;28;20116;-68
2021/12/13 10:51:57;;;;;;;7.32;5.05;;;16.40;55.10;15.40;102289.00;;;;5010978;28;20077;-68
2021/12/13 10:54:48;;;;;;;7.05;5.50;;;16.40;55.10;15.40;102280.00;;;;5001108;28;20499;-68
2021/12/13 10:57:38;;;;;;;6.47;4.75;;;16.40;55.10;15.50;102274.00;;;;5005443;28;20483;-68
2021/12/13 11:00:39;;;;;;;6.65;5.05;;;16.40;55.10;15.50;102274.00;;;;5020836;28;20164;-68
2021/12/13 11:03:28;;;;;;;6.35;4.85;;;16.40;55.10;15.50;102278.00;;;;5015846;28;20049;-68
2021/12/13 11:06:15;;;;;;;9.43;5.45;;;16.40;55.10;15.40;102282.00;;;;5022775;28;20387;-68
2021/12/13 11:09:05;;;;;;;7.10;4.70;;;16.40;55.10;15.50;102276.00;;;;5021709;28;20037;-68
2021/12/13 11:12:04;;;;;;;5.97;4.38;;;16.40;55.10;15.50;102275.00;;;;5004048;28;20041;-68
2021/12/13 11:14:52;;;;;;;6.82;4.75;;;16.40;55.10;15.40;102272.00;;;;5018807;28;20046;-68
2021/12/13 11:17:40;;;;;;;7.13;4.68;;;16.40;55.00;15.50;102271.00;;;;5020251;28;20505;-68
2021/12/13 11:20:36;;;;;;;6.82;4.35;;;16.40;55.00;15.50;102281.00;;;;5017839;28;20041;-68
2021/12/13 11:23:23;;;;;;;7.45;4.80;;;16.40;55.00;15.50;102273.00;;;;5017183;28;20123;-68
2021/12/13 11:26:12;;;;;;;6.65;4.43;;;16.40;55.00;15.50;102268.00;;;;5021611;28;20037;-68
2021/12/13 11:29:00;;;;;;;5.85;4.22;;;16.40;55.00;15.40;102266.00;;;;5032915;28;20033;-68
2021/12/13 11:32:00;;;;;;;6.95;4.40;;;16.40;55.00;15.50;102274.00;;;;5017049;28;20073;-68
2021/12/13 11:35:11;;;;;;;5.47;4.20;;;16.40;55.00;15.40;102267.00;;;;5015447;28;20055;-68
2021/12/13 11:38:34;;;;;;;6.68;4.53;;;16.40;55.00;15.40;102263.00;;;;5017753;28;20042;-68
2021/12/13 11:41:37;;;;;;;5.38;4.15;;;16.40;55.00;15.40;102253.00;;;;5015339;28;20040;-68
2021/12/13 11:45:00;;;;;;;6.30;4.22;;;16.40;55.00;15.40;102249.00;;;;5016249;28;20041;-68
2021/12/13 11:48:16;;;;;;;6.47;4.63;;;16.40;55.00;15.40;102256.00;;;;5014129;28;20053;-68
2021/12/13 11:51:20;;;;;;;6.53;4.00;;;16.40;55.10;15.40;102249.00;;;;5018087;28;20123;-68
2021/12/13 11:54:35;;;;;;;7.05;4.75;;;16.40;55.10;15.40;102261.00;;;;5020818;28;20404;-68
2021/12/13 11:58:02;;;;;;;6.10;4.28;;;16.40;55.10;15.40;102262.00;;;;5022185;28;20038;-68
2021/12/13 12:01:32;;;;;;;7.38;4.80;;;16.40;55.10;15.40;102258.00;;;;5016344;28;20041;-68
2021/12/13 12:05:11;;;;;;;5.05;3.88;;;16.40;55.10;15.40;102246.00;;;;5017018;28;20036;-68
2021/12/13 12:08:40;;;;;;;6.97;4.13;;;16.40;55.10;15.40;102253.00;;;;5013827;28;20077;-68
2021/12/13 12:12:22;;;;;;;5.53;3.90;;;16.40;55.10;15.40;102256.00;;;;5016327;28;20049;-68
2021/12/13 12:15:09;;;;;;;4.95;3.90;;;16.40;55.10;15.40;102258.00;;;;5012715;28;20038;-68
2021/12/13 12:18:03;;;;;;;6.35;3.67;;;16.40;55.10;15.40;102249.00;;;;5007806;28;20041;-68
2021/12/13 12:21:25;;;;;;;5.25;3.92;;;16.40;55.10;15.40;102249.00;;;;5015487;28;20501;-69
2021/12/13 12:24:19;;;;;;;6.85;3.75;;;16.40;55.10;15.40;102248.00;;;;5019592;28;20041;-68
2021/12/13 12:27:12;;;;;;;7.22;4.47;;;16.40;55.10;15.40;102248.00;;;;5017886;28;20045;-68
2021/12/13 12:30:06;;;;;;;4.40;3.45;;;16.40;55.10;15.40;102238.00;;;;5026472;28;20048;-68
2021/12/13 12:33:06;;;;;;;3.88;3.38;;;16.40;55.10;15.40;102232.00;;;;5028748;28;20037;-68
2021/12/13 12:35:52;;;;;;;6.32;3.78;;;16.40;55.10;15.40;102240.00;;;;5014047;28;20119;-68
2021/12/13 12:39:03;;;;;;;4.78;3.40;;;16.40;55.00;15.40;102237.00;;;;5019234;28;20399;-68
2021/12/13 12:42:23;;;;;;;4.07;2.92;;;16.40;55.10;15.40;102248.00;;;;5011467;28;20042;-68
2021/12/13 12:45:27;;;;;;;;;;;16.40;55.00;15.40;102245.00;;;;5012977;28;20041;-68
2021/12/13 12:48:30;;;;;;;4.68;2.95;;;16.40;54.80;15.40;102240.00;;;;5037869;28;19995;-68
2021/12/13 12:51:28;;;;;;;6.55;3.45;;;16.40;55.00;15.40;102249.00;;;;5043004;28;20049;-68
2021/12/13 12:54:18;;;;;;;6.57;3.13;;;16.40;55.00;15.40;102257.00;;;;5021918;28;20045;-68
2021/12/13 12:57:04;;;;;;;5.63;3.22;;;16.40;55.00;15.40;102244.00;;;;5026242;28;20045;-68